Time;durP1;ratioP1;P1;durP2;ratioP2;P2;SDS_P1;SDS_P2;PMS_P1;PMS_P2;Temp;Humidity;BMP_temperature;BMP_pressure;BME280_temperature;BME280_humidity;BME280_pressure;Samples;Min_cycle;Max_cycle;Signal;HPM_P1;HPM_P2
2022/08/03 00:02:05;;;;;;;2.20;2.00;;;;;;;28.14;45.79;99339.94;5052310;28;20676;-65
2022/08/03 00:04:31;;;;;;;2.73;1.60;;;;;;;28.17;45.57;99338.53;5053125;28;20192;-65
2022/08/03 00:06:58;;;;;;;6.73;1.90;;;;;;;28.16;46.04;99340.44;5052517;28;20196;-65
2022/08/03 00:09:25;;;;;;;2.33;1.90;;;;;;;28.24;45.44;99336.13;5052393;28;20189;-65
2022/08/03 00:11:51;;;;;;;1.87;1.53;;;;;;;28.21;45.17;99328.56;5052125;28;20664;-65
2022/08/03 00:14:18;;;;;;;1.90;1.80;;;;;;;28.19;44.99;99330.81;5052406;28;20203;-65
2022/08/03 00:16:46;;;;;;;1.70;1.60;;;;;;;28.13;45.07;99327.41;5052310;28;20239;-65
2022/08/03 00:19:13;;;;;;;2.20;1.70;;;;;;;28.13;44.79;99332.09;5052299;28;20197;-65
2022/08/03 00:21:40;;;;;;;3.43;1.90;;;;;;;28.00;44.74;99332.97;5052266;28;20637;-65
2022/08/03 00:24:07;;;;;;;2.40;1.33;;;;;;;27.79;45.32;99337.31;5051985;28;20793;-65
2022/08/03 00:26:34;;;;;;;1.80;1.70;;;;;;;27.78;46.04;99330.25;5051956;28;20730;-65
2022/08/03 00:29:01;;;;;;;1.70;1.60;;;;;;;27.73;46.39;99333.09;5051913;28;20193;-65
2022/08/03 00:31:27;;;;;;;1.83;1.73;;;;;;;27.76;46.20;99327.03;5051891;28;20200;-65
2022/08/03 00:33:56;;;;;;;1.57;1.47;;;;;;;27.65;45.86;99331.91;5052190;28;20262;-66
2022/08/03 00:36:22;;;;;;;1.70;1.70;;;;;;;27.57;46.54;99329.13;5052087;28;20224;-65
2022/08/03 00:38:49;;;;;;;1.90;1.80;;;;;;;27.51;46.99;99341.28;5051791;28;20250;-66
2022/08/03 00:41:16;;;;;;;1.77;1.50;;;;;;;27.44;47.51;99336.25;5052133;28;20239;-65
2022/08/03 00:43:43;;;;;;;1.63;1.63;;;;;;;27.65;46.92;99336.59;5050833;28;20196;-66
2022/08/03 00:46:10;;;;;;;2.27;1.50;;;;;;;27.80;46.29;99338.91;5051655;28;20202;-65
2022/08/03 00:48:37;;;;;;;2.27;1.80;;;;;;;27.77;46.53;99334.88;5051989;28;20269;-66
2022/08/03 00:51:06;;;;;;;1.70;1.60;;;;;;;27.86;46.38;99338.53;5051727;28;20260;-66
2022/08/03 00:53:35;;;;;;;1.60;1.50;;;;;;;27.86;46.37;99337.72;5050777;28;20196;-65
2022/08/03 00:56:02;;;;;;;2.70;2.10;;;;;;;27.85;46.76;99330.66;5051822;28;20246;-66
2022/08/03 00:58:29;;;;;;;2.13;2.03;;;;;;;27.80;47.24;99338.91;5051414;28;20286;-66
2022/08/03 01:00:55;;;;;;;3.90;1.50;;;;;;;27.67;47.61;99328.88;5051941;28;20197;-65
2022/08/03 01:03:22;;;;;;;2.00;1.63;;;;;;;27.59;47.22;99335.09;5051604;28;20657;-66
2022/08/03 01:05:55;;;;;;;2.00;1.93;;;;;;;27.49;48.33;99329.88;5051694;28;20231;-67
2022/08/03 01:08:33;;;;;;;1.80;1.70;;;;;;;27.46;48.27;99341.41;5051117;28;20641;-66
2022/08/03 01:11:08;;;;;;;2.00;1.90;;;;;;;27.40;48.71;99340.72;5051220;28;20184;-65
2022/08/03 01:13:43;;;;;;;4.37;2.23;;;;;;;27.42;48.57;99340.41;5051377;28;20603;-65
2022/08/03 01:16:16;;;;;;;1.70;1.60;;;;;;;27.52;47.64;99335.53;5051852;28;20204;-65
2022/08/03 01:18:51;;;;;;;1.40;1.40;;;;;;;27.56;47.66;99341.97;5051592;28;20610;-65
2022/08/03 01:21:24;;;;;;;1.63;1.50;;;;;;;27.65;47.10;99347.50;5052593;28;20188;-65
2022/08/03 01:24:04;;;;;;;1.73;1.63;;;;;;;27.62;47.93;99338.00;5051977;28;20189;-65
2022/08/03 01:26:53;;;;;;;1.43;1.33;;;;;;;27.67;47.63;99350.72;5051435;28;20188;-65
2022/08/03 01:29:49;;;;;;;2.10;1.73;;;;;;;27.69;47.94;99348.50;5051918;28;20526;-65
2022/08/03 01:32:20;;;;;;;1.90;1.80;;;;;;;27.64;47.88;99343.16;5051396;28;20215;-65
2022/08/03 01:34:52;;;;;;;1.73;1.63;;;;;;;27.59;48.29;99335.09;5051882;28;20269;-65
2022/08/03 01:37:38;;;;;;;2.17;2.00;;;;;;;27.42;48.81;99337.69;5054578;28;20204;-65
2022/08/03 01:40:07;;;;;;;2.70;2.00;;;;;;;27.52;48.07;99343.72;5056112;28;20185;-65
2022/08/03 01:42:36;;;;;;;2.13;1.60;;;;;;;27.65;48.00;99336.59;5055226;28;20189;-65
2022/08/03 01:45:07;;;;;;;1.60;1.50;;;;;;;27.63;48.57;99338.81;5055438;28;20197;-65
2022/08/03 01:47:35;;;;;;;1.90;1.80;;;;;;;27.58;48.84;99336.19;5055047;28;20250;-65
2022/08/03 01:50:03;;;;;;;2.10;2.00;;;;;;;27.55;48.57;99337.63;5054777;28;20197;-65
2022/08/03 01:52:32;;;;;;;2.43;1.83;;;;;;;27.49;48.57;99335.34;5054494;28;20714;-66
2022/08/03 01:55:01;;;;;;;2.27;1.87;;;;;;;27.52;49.37;99337.47;5054439;28;20247;-65
2022/08/03 01:57:29;;;;;;;4.20;2.03;;;;;;;27.53;49.54;99339.06;5054237;28;20241;-65
2022/08/03 01:59:59;;;;;;;3.73;2.67;;;;;;;27.50;49.28;99339.69;5055776;28;20276;-65
2022/08/03 02:02:27;;;;;;;2.50;2.30;;;;;;;27.13;49.51;99342.72;5054104;28;20631;-66
2022/08/03 02:04:56;;;;;;;2.30;2.10;;;;;;;26.97;50.20;99335.97;5055590;28;20295;-66
2022/08/03 02:07:26;;;;;;;2.27;2.13;;;;;;;26.94;51.11;99344.78;5054785;28;20283;-66
2022/08/03 02:09:54;;;;;;;3.20;2.00;;;;;;;27.06;50.35;99345.03;5054642;28;20223;-65
2022/08/03 02:12:23;;;;;;;4.00;2.10;;;;;;;27.11;49.91;99350.41;5054298;28;20205;-65
2022/08/03 02:14:51;;;;;;;2.10;1.93;;;;;;;27.01;49.92;99340.53;5054603;28;20625;-65
2022/08/03 02:17:20;;;;;;;2.80;2.60;;;;;;;26.97;50.06;99335.97;5054182;28;20228;-65
2022/08/03 02:19:50;;;;;;;2.33;2.23;;;;;;;26.87;49.95;99334.28;5054181;28;20199;-65
2022/08/03 02:22:17;;;;;;;5.23;2.53;;;;;;;26.74;50.44;99337.06;5054851;28;20219;-65
2022/08/03 02:24:44;;;;;;;5.67;2.57;;;;;;;26.49;51.02;99342.97;5054444;28;20242;-64
2022/08/03 02:27:18;;;;;;;2.43;2.33;;;;;;;26.49;51.21;99340.25;5055177;28;20204;-64
2022/08/03 02:29:48;;;;;;;2.37;2.00;;;;;;;26.50;51.34;99337.22;5054034;28;20645;-64
2022/08/03 02:32:22;;;;;;;2.63;2.43;;;;;;;26.51;49.79;99338.84;5054601;28;20279;-65
2022/08/03 02:34:53;;;;;;;2.13;2.03;;;;;;;26.31;49.84;99347.44;5053994;28;20239;-64
2022/08/03 02:37:22;;;;;;;2.50;2.40;;;;;;;26.18;51.59;99342.78;5053612;28;20684;-64
2022/08/03 02:39:52;;;;;;;5.53;2.33;;;;;;;26.27;52.23;99345.59;5053785;28;20196;-65
2022/08/03 02:42:21;;;;;;;3.33;2.70;;;;;;;26.35;50.22;99350.34;5053572;28;20232;-65
2022/08/03 02:44:50;;;;;;;2.90;2.53;;;;;;;26.37;51.32;99340.75;5053585;28;20734;-65
2022/08/03 02:47:20;;;;;;;2.30;2.20;;;;;;;26.46;50.69;99343.59;5054069;28;20196;-65
2022/08/03 02:49:50;;;;;;;3.27;2.80;;;;;;;26.60;50.24;99349.88;5053295;28;20193;-65
2022/08/03 02:52:19;;;;;;;2.70;2.50;;;;;;;26.59;49.87;99342.81;5053564;28;20683;-65
2022/08/03 02:54:49;;;;;;;2.73;2.53;;;;;;;26.66;49.73;99349.47;5053853;28;20192;-65
2022/08/03 02:57:18;;;;;;;2.83;2.57;;;;;;;26.72;49.82;99347.44;5053403;28;20274;-65
2022/08/03 02:59:45;;;;;;;4.33;2.47;;;;;;;26.76;49.20;99346.53;5053375;28;20181;-66
2022/08/03 03:02:14;;;;;;;4.60;2.80;;;;;;;26.84;49.33;99358.63;5053728;28;20193;-65
2022/08/03 03:04:42;;;;;;;3.57;2.93;;;;;;;26.92;49.18;99366.09;5053895;28;20189;-65
2022/08/03 03:07:12;;;;;;;3.10;2.30;;;;;;;27.01;49.66;99358.78;5053580;28;20273;-65
2022/08/03 03:09:39;;;;;;;6.63;2.87;;;;;;;27.13;48.68;99367.25;5053268;28;20316;-65
2022/08/03 03:12:08;;;;;;;6.27;2.63;;;;;;;27.14;48.50;99363.41;5054048;28;20188;-65
2022/08/03 03:14:36;;;;;;;5.87;3.07;;;;;;;27.15;48.59;99367.78;5053131;28;20664;-64
2022/08/03 03:17:04;;;;;;;5.50;2.83;;;;;;;27.13;48.80;99367.25;5053047;28;20699;-65
2022/08/03 03:19:32;;;;;;;3.37;2.23;;;;;;;27.11;48.47;99373.00;5053692;28;20258;-65
2022/08/03 03:22:01;;;;;;;2.47;2.27;;;;;;;27.11;47.74;99367.56;5052917;28;20664;-65
2022/08/03 03:24:29;;;;;;;2.00;1.90;;;;;;;27.08;48.06;99365.47;5053262;28;20275;-65
2022/08/03 03:26:57;;;;;;;1.93;1.83;;;;;;;27.06;46.88;99373.13;5053782;28;20200;-65
2022/08/03 03:29:24;;;;;;;2.03;1.80;;;;;;;27.03;47.55;99378.41;5053240;28;20197;-65
2022/08/03 03:31:51;;;;;;;3.83;2.13;;;;;;;27.06;47.78;99383.22;5052995;28;20201;-65
2022/08/03 03:34:19;;;;;;;3.40;1.83;;;;;;;27.08;47.06;99384.56;5053612;28;20196;-65
2022/08/03 03:36:45;;;;;;;3.30;2.27;;;;;;;27.02;48.12;99390.41;5052784;28;20660;-65
2022/08/03 03:39:13;;;;;;;2.70;1.93;;;;;;;26.99;48.39;99389.09;5052882;28;20242;-64
2022/08/03 03:41:41;;;;;;;1.80;1.70;;;;;;;27.04;47.75;99396.38;5052607;28;20200;-64
2022/08/03 03:44:08;;;;;;;2.20;2.00;;;;;;;27.12;47.13;99393.72;5052943;28;20192;-65
2022/08/03 03:46:35;;;;;;;2.23;2.10;;;;;;;27.17;47.38;99395.53;5052749;28;20204;-65
2022/08/03 03:49:01;;;;;;;4.27;1.83;;;;;;;27.19;47.46;99404.22;5052632;28;20262;-65
2022/08/03 03:51:28;;;;;;;5.63;1.80;;;;;;;27.18;47.07;99399.88;5052462;28;20699;-65
2022/08/03 03:54:00;;;;;;;2.00;1.90;;;;;;;26.93;48.29;99394.97;5052375;28;20624;-65
2022/08/03 03:56:27;;;;;;;2.60;1.90;;;;;;;27.00;47.04;99409.00;5052326;28;20278;-65
2022/08/03 03:58:56;;;;;;;4.60;2.37;;;;;;;27.02;47.96;99404.84;5052588;28;20708;-65
2022/08/03 04:01:22;;;;;;;2.13;2.03;;;;;;;27.10;47.80;99406.03;5052545;28;20279;-65
2022/08/03 04:03:49;;;;;;;2.00;1.90;;;;;;;27.16;47.61;99416.53;5052247;28;20571;-65
2022/08/03 04:11:50;;;;;;;2.50;1.83;;;;;;;27.01;47.53;99408.69;5052529;28;20258;-65
2022/08/03 04:14:20;;;;;;;2.00;1.90;;;;;;;27.08;47.54;99417.28;5052153;28;20718;-65
2022/08/03 04:16:51;;;;;;;2.80;1.70;;;;;;;27.13;47.40;99414.44;5052209;28;20299;-65
2022/08/03 04:19:26;;;;;;;2.23;2.13;;;;;;;27.07;47.14;99412.91;5053224;28;20184;-65
2022/08/03 04:21:57;;;;;;;2.93;2.23;;;;;;;27.17;47.32;99423.63;5052243;28;20193;-65
2022/08/03 04:24:29;;;;;;;3.73;2.00;;;;;;;27.23;47.41;99421.63;5051826;28;20185;-65
2022/08/03 04:26:58;;;;;;;3.50;1.83;;;;;;;27.33;46.97;99427.69;5051942;28;20621;-65
2022/08/03 04:29:29;;;;;;;2.10;2.00;;;;;;;27.35;47.06;99427.34;5052117;28;20250;-65
2022/08/03 04:31:59;;;;;;;2.97;2.50;;;;;;;27.38;47.05;99430.28;5053009;28;20250;-65
2022/08/03 04:34:26;;;;;;;3.83;2.20;;;;;;;27.43;46.86;99432.88;5052267;28;20192;-65
2022/08/03 04:36:58;;;;;;;2.37;2.00;;;;;;;27.56;46.23;99433.97;5051404;28;20281;-65
2022/08/03 04:39:26;;;;;;;6.63;2.53;;;;;;;27.52;46.35;99433.75;5051922;28;20192;-66
2022/08/03 04:41:55;;;;;;;4.00;2.20;;;;;;;27.54;46.40;99434.28;5051802;28;20193;-65
2022/08/03 04:44:24;;;;;;;7.47;2.40;;;;;;;27.59;46.08;99436.88;5051760;28;20270;-65
2022/08/03 04:46:53;;;;;;;5.67;2.07;;;;;;;27.65;45.88;99440.31;5051801;28;20204;-65
2022/08/03 04:49:21;;;;;;;3.97;2.23;;;;;;;27.63;46.01;99431.59;5051811;28;20197;-65
2022/08/03 04:51:49;;;;;;;6.80;2.10;;;;;;;27.66;45.85;99441.91;5051604;28;20219;-65
2022/08/03 04:54:16;;;;;;;6.00;1.90;;;;;;;27.67;45.94;99438.88;5051765;28;20250;-66
2022/08/03 04:56:43;;;;;;;5.03;2.33;;;;;;;27.69;45.38;99457.69;5051073;28;20282;-66
2022/08/03 04:59:10;;;;;;;3.47;2.50;;;;;;;27.78;45.70;99439.44;5051427;28;20224;-66
2022/08/03 05:01:37;;;;;;;8.07;2.10;;;;;;;27.85;45.21;99446.13;5051288;28;20616;-65
2022/08/03 05:04:05;;;;;;;3.50;1.83;;;;;;;27.89;44.69;99449.84;5051053;28;20639;-65
2022/08/03 05:06:32;;;;;;;2.33;2.23;;;;;;;27.85;44.76;99448.06;5051906;28;20262;-65
2022/08/03 05:08:59;;;;;;;4.87;2.00;;;;;;;27.69;45.36;99452.22;5050769;28;20665;-65
2022/08/03 05:11:26;;;;;;;5.60;2.97;;;;;;;27.42;45.61;99453.13;5052293;28;20205;-66
2022/08/03 05:13:52;;;;;;;5.53;3.03;;;;;;;27.14;46.23;99450.69;5054959;28;20201;-65
2022/08/03 05:16:19;;;;;;;7.67;3.03;;;;;;;26.78;47.11;99458.00;5054744;28;20246;-64
2022/08/03 05:18:46;;;;;;;3.70;2.17;;;;;;;26.51;48.74;99447.84;5054694;28;20615;-65
2022/08/03 05:21:15;;;;;;;2.80;2.23;;;;;;;26.57;48.39;99448.53;5055119;28;20196;-66
2022/08/03 05:23:42;;;;;;;2.53;2.40;;;;;;;26.60;48.40;99450.69;5054932;28;20189;-65
2022/08/03 05:26:10;;;;;;;10.53;2.57;;;;;;;26.48;49.17;99448.44;5054816;28;20242;-66
2022/08/03 05:28:37;;;;;;;2.80;2.10;;;;;;;26.42;49.71;99459.72;5055050;28;20204;-65
2022/08/03 05:31:04;;;;;;;5.07;2.13;;;;;;;26.90;49.13;99455.56;5054998;28;20655;-66
2022/08/03 05:33:31;;;;;;;6.53;2.80;;;;;;;27.16;47.72;99470.31;5068781;28;20250;-66
2022/08/03 05:35:58;;;;;;;9.00;3.00;;;;;;;27.14;47.62;99467.88;5074155;28;20192;-62
2022/08/03 05:38:26;;;;;;;5.73;2.80;;;;;;;27.06;47.75;99473.22;5074951;28;20234;-67
2022/08/03 05:40:53;;;;;;;36.93;4.07;;;;;;;27.32;48.71;99477.09;5075038;28;20192;-66
2022/08/03 05:43:20;;;;;;;6.97;2.80;;;;;;;27.39;47.35;99486.47;5074610;28;20275;-62
2022/08/03 05:45:47;;;;;;;4.33;2.83;;;;;;;27.62;47.03;99490.06;5074932;28;20192;-63
2022/08/03 05:48:14;;;;;;;8.53;3.33;;;;;;;27.57;46.44;99484.72;5074385;28;20745;-63
2022/08/03 05:50:40;;;;;;;8.10;2.63;;;;;;;27.65;47.05;99486.72;5074603;28;20188;-62
2022/08/03 05:53:07;;;;;;;8.13;2.97;;;;;;;27.88;46.74;99488.38;5074410;28;20198;-63
2022/08/03 05:55:35;;;;;;;7.20;3.70;;;;;;;27.91;46.24;99493.22;5074689;28;20257;-62
2022/08/03 05:58:02;;;;;;;9.97;2.80;;;;;;;28.26;45.43;99484.97;5065317;28;20644;-61
2022/08/03 06:00:29;;;;;;;5.20;2.67;;;;;;;28.44;44.38;99491.38;5054352;28;20201;-61
2022/08/03 06:02:56;;;;;;;5.33;2.80;;;;;;;28.61;44.14;99488.75;5054280;28;20246;-62
2022/08/03 06:05:25;;;;;;;4.60;3.00;;;;;;;28.44;44.54;99496.84;5054112;28;20193;-62
2022/08/03 06:07:52;;;;;;;5.27;2.67;;;;;;;28.21;44.08;99481.56;5055684;28;20204;-62
2022/08/03 06:10:19;;;;;;;17.33;4.00;;;;;;;28.22;45.00;99480.47;5054147;28;20288;-62
2022/08/03 06:12:48;;;;;;;5.47;2.20;;;;;;;28.42;44.72;99483.50;5053354;28;20619;-62
2022/08/03 06:15:15;;;;;;;11.90;3.13;;;;;;;28.53;44.48;99486.78;5053866;28;20235;-62
2022/08/03 06:17:46;;;;;;;11.30;2.63;;;;;;;28.56;44.32;99488.88;5053492;28;20657;-62
2022/08/03 06:20:12;;;;;;;11.70;3.10;;;;;;;28.80;43.92;99489.34;5054725;28;20277;-62
2022/08/03 06:22:39;;;;;;;3.67;2.73;;;;;;;29.06;42.97;99493.00;5053966;28;20274;-62
2022/08/03 06:25:06;;;;;;;10.13;2.97;;;;;;;29.31;42.14;99500.47;5053992;28;20247;-62
2022/08/03 06:27:33;;;;;;;5.23;2.40;;;;;;;29.43;42.30;99495.19;5053852;28;20230;-62
2022/08/03 06:30:01;;;;;;;3.30;2.17;;;;;;;29.42;42.05;99492.75;5073594;28;20192;-62
2022/08/03 06:32:28;;;;;;;5.70;2.70;;;;;;;29.40;41.69;99503.25;5064247;28;20257;-62
2022/08/03 06:34:55;;;;;;;2.83;2.30;;;;;;;29.41;41.14;99505.66;5073051;28;20249;-62
2022/08/03 06:37:22;;;;;;;3.37;2.20;;;;;;;29.39;40.91;99496.94;5072673;28;20645;-64
2022/08/03 06:39:48;;;;;;;6.30;2.67;;;;;;;29.46;41.22;99502.78;5073595;28;20192;-61
2022/08/03 06:42:15;;;;;;;5.17;2.50;;;;;;;29.49;40.82;99512.28;5073455;28;20192;-62
2022/08/03 06:44:42;;;;;;;5.10;2.50;;;;;;;29.58;40.51;99511.19;5073129;28;20192;-61
2022/08/03 06:47:10;;;;;;;2.70;2.50;;;;;;;29.71;40.38;99509.44;5073190;28;20261;-62
2022/08/03 06:49:37;;;;;;;2.23;1.77;;;;;;;29.83;40.42;99507.69;5072837;28;20192;-63
2022/08/03 06:52:04;;;;;;;2.30;2.10;;;;;;;29.90;40.24;99512.69;5073335;28;20195;-63
2022/08/03 06:54:30;;;;;;;3.07;2.23;;;;;;;30.00;39.69;99504.16;5073443;28;20200;-61
2022/08/03 06:56:57;;;;;;;6.10;2.30;;;;;;;29.96;39.91;99506.72;5072981;28;20206;-61
2022/08/03 06:59:24;;;;;;;5.00;2.43;;;;;;;30.01;40.11;99503.03;5073647;28;20640;-61
2022/08/03 07:01:51;;;;;;;5.87;2.47;;;;;;;30.17;39.30;99506.91;5072636;28;20203;-61
2022/08/03 07:04:19;;;;;;;4.70;2.20;;;;;;;30.34;38.87;99501.41;5072973;28;20196;-61
2022/08/03 07:06:45;;;;;;;2.93;2.20;;;;;;;30.47;39.25;99497.66;5073613;28;20572;-61
2022/08/03 07:09:12;;;;;;;3.13;2.00;;;;;;;30.69;38.79;99498.28;5073024;28;20265;-61
2022/08/03 07:11:39;;;;;;;8.73;2.43;;;;;;;30.91;37.47;99495.28;5072745;28;20246;-62
2022/08/03 07:14:06;;;;;;;4.50;2.90;;;;;;;30.98;37.94;99500.25;5072920;28;20565;-61
2022/08/03 07:16:33;;;;;;;9.70;3.00;;;;;;;31.43;35.82;99506.81;5072722;28;20192;-61
2022/08/03 07:18:59;;;;;;;6.20;2.90;;;;;;;31.81;35.64;99507.59;5072938;28;20219;-61
2022/08/03 07:21:27;;;;;;;6.47;2.67;;;;;;;32.02;34.82;99497.38;5072447;28;20556;-61
2022/08/03 07:23:54;;;;;;;11.60;2.87;;;;;;;31.78;35.77;99495.31;5072719;28;20257;-61
2022/08/03 07:26:21;;;;;;;8.63;2.90;;;;;;;31.74;35.56;99507.28;5072584;28;20733;-61
2022/08/03 07:28:47;;;;;;;7.97;2.90;;;;;;;31.82;35.61;99503.69;5072646;28;20257;-61
2022/08/03 07:31:14;;;;;;;4.43;3.10;;;;;;;31.90;35.27;99503.63;5072543;28;20200;-61
2022/08/03 07:33:41;;;;;;;5.80;2.63;;;;;;;31.95;35.28;99497.94;5072551;28;20200;-61
2022/08/03 07:36:07;;;;;;;6.63;2.80;;;;;;;32.12;34.61;99508.78;5072169;28;20196;-61
2022/08/03 07:38:36;;;;;;;4.13;2.90;;;;;;;32.07;35.07;99506.25;5072174;28;20228;-61
2022/08/03 07:41:03;;;;;;;4.77;3.33;;;;;;;31.91;35.02;99508.00;5071576;28;20198;-61
2022/08/03 07:43:30;;;;;;;3.27;2.70;;;;;;;32.32;35.04;99513.47;5072356;28;20280;-61
2022/08/03 07:45:57;;;;;;;6.47;3.30;;;;;;;32.71;33.99;99515.63;5071893;28;20725;-62
2022/08/03 07:48:24;;;;;;;6.00;2.97;;;;;;;32.73;33.82;99507.84;5072469;28;20249;-62
2022/08/03 07:50:50;;;;;;;7.00;2.83;;;;;;;32.85;34.04;99510.66;5071950;28;20625;-61
2022/08/03 07:53:17;;;;;;;12.97;2.90;;;;;;;33.12;33.46;99514.69;5071835;28;20196;-63
2022/08/03 07:55:45;;;;;;;8.23;3.27;;;;;;;32.92;33.89;99512.84;5072345;28;20192;-62
2022/08/03 07:58:16;;;;;;;5.60;3.00;;;;;;;33.13;34.08;99511.59;5050864;28;20236;-62
2022/08/03 08:00:43;;;;;;;8.03;3.23;;;;;;;32.80;34.17;99513.63;5052197;28;20185;-62
2022/08/03 08:03:11;;;;;;;4.43;3.07;;;;;;;32.44;34.79;99516.25;5052070;28;20275;-61
2022/08/03 08:05:37;;;;;;;6.27;3.33;;;;;;;32.29;35.81;99516.88;5051812;28;20204;-61
2022/08/03 08:08:04;;;;;;;4.03;3.47;;;;;;;32.07;36.12;99514.47;5051736;28;20737;-62
2022/08/03 08:10:32;;;;;;;9.53;3.07;;;;;;;32.00;36.12;99511.47;5051791;28;20734;-61
2022/08/03 08:13:00;;;;;;;3.40;3.07;;;;;;;32.14;36.00;99517.47;5051250;28;20243;-61
2022/08/03 08:15:27;;;;;;;3.20;3.00;;;;;;;32.52;35.59;99517.31;5051474;28;20196;-62
2022/08/03 08:17:57;;;;;;;4.47;3.27;;;;;;;33.12;34.33;99521.00;5051953;28;20224;-61
2022/08/03 08:20:27;;;;;;;3.70;3.13;;;;;;;33.57;33.51;99531.13;5052022;28;20717;-62
2022/08/03 08:22:55;;;;;;;5.53;3.10;;;;;;;33.97;33.29;99520.97;5051934;28;20215;-62
2022/08/03 08:25:22;;;;;;;3.50;3.20;;;;;;;34.48;32.20;99517.31;5051963;28;20201;-62
2022/08/03 08:27:49;;;;;;;3.83;2.88;;;;;;;34.66;32.32;99518.63;5051557;28;20269;-63
2022/08/03 08:30:19;;;;;;;5.47;3.15;;;;;;;34.67;31.97;99511.94;5051613;28;20254;-62
2022/08/03 08:32:46;;;;;;;3.80;3.50;;;;;;;34.40;32.74;99516.34;5051563;28;20247;-62
2022/08/03 08:35:13;;;;;;;6.07;3.88;;;;;;;34.60;32.04;99514.50;5051496;28;20192;-62
2022/08/03 08:37:40;;;;;;;6.25;3.15;;;;;;;35.00;31.83;99512.44;5051661;28;20749;-62
2022/08/03 08:40:08;;;;;;;4.20;3.80;;;;;;;33.72;33.87;99511.13;5057429;28;20263;-62
2022/08/03 08:42:37;;;;;;;3.65;3.35;;;;;;;33.18;34.82;99511.38;5071427;28;20664;-62
2022/08/03 08:45:05;;;;;;;4.93;3.50;;;;;;;32.46;36.19;99510.44;5068956;28;20203;-62
2022/08/03 08:47:36;;;;;;;5.00;4.10;;;;;;;32.04;37.28;99500.59;5074339;28;20196;-63
2022/08/03 08:50:04;;;;;;;4.13;3.80;;;;;;;31.96;37.02;99505.03;5076090;28;20192;-62
2022/08/03 08:52:31;;;;;;;4.60;4.30;;;;;;;32.30;36.69;99506.72;5075630;28;20332;-61
2022/08/03 08:55:02;;;;;;;3.97;3.67;;;;;;;32.95;35.61;99512.16;5075573;28;20196;-62
2022/08/03 08:57:31;;;;;;;4.17;3.80;;;;;;;33.47;34.35;99509.56;5068076;28;20259;-63
2022/08/03 08:59:58;;;;;;;4.87;3.40;;;;;;;33.65;33.92;99516.41;5055833;28;20189;-62
2022/08/03 09:02:26;;;;;;;3.85;3.65;;;;;;;34.11;33.28;99516.66;5055602;28;20199;-62
2022/08/03 09:04:54;;;;;;;3.63;3.42;;;;;;;34.60;32.36;99508.97;5068777;28;20687;-62
2022/08/03 09:07:20;;;;;;;4.25;3.30;;;;;;;34.47;32.14;99512.97;5096334;28;20195;-63
2022/08/03 09:09:47;;;;;;;3.72;3.42;;;;;;;34.28;32.20;99507.28;5095522;28;20659;-62
2022/08/03 09:12:14;;;;;;;3.60;3.40;;;;;;;34.57;32.57;99504.19;5095976;28;20195;-62
2022/08/03 09:14:41;;;;;;;4.30;3.42;;;;;;;34.28;32.94;99505.31;5095796;28;20195;-62
2022/08/03 09:17:08;;;;;;;5.55;3.38;;;;;;;33.66;33.41;99506.97;5095996;28;20199;-64
2022/08/03 09:19:35;;;;;;;3.58;3.30;;;;;;;33.44;33.45;99504.72;5095631;28;20219;-63
2022/08/03 09:22:12;;;;;;;3.67;3.37;;;;;;;33.09;34.13;99502.44;5096090;28;20623;-62
2022/08/03 09:24:53;;;;;;;3.47;3.00;;;;;;;32.17;36.15;99500.31;5095844;28;20643;-62
2022/08/03 09:27:20;;;;;;;4.37;3.30;;;;;;;32.42;36.49;99484.75;5095899;28;20282;-62
2022/08/03 09:29:48;;;;;;;3.70;3.20;;;;;;;32.89;35.28;99491.50;5095117;28;20196;-62
2022/08/03 09:32:19;;;;;;;7.67;3.27;;;;;;;33.34;34.20;99478.44;5082911;28;20270;-63
2022/08/03 09:34:47;;;;;;;3.47;3.17;;;;;;;32.88;34.85;99485.22;5074826;28;20191;-62
2022/08/03 09:37:16;;;;;;;3.60;3.30;;;;;;;32.72;34.81;99483.44;5075073;28;20257;-62
2022/08/03 09:39:44;;;;;;;3.13;2.87;;;;;;;32.72;34.32;99495.25;5074881;28;20224;-62
2022/08/03 09:42:12;;;;;;;3.17;2.97;;;;;;;32.99;34.20;99483.59;5075144;28;20276;-62
2022/08/03 09:44:41;;;;;;;3.13;2.92;;;;;;;33.57;33.32;99471.31;5074929;28;20623;-63
2022/08/03 09:47:09;;;;;;;3.00;2.80;;;;;;;33.81;32.84;99484.22;5074847;28;20287;-62
2022/08/03 09:49:36;;;;;;;3.23;2.93;;;;;;;32.55;33.91;99473.41;5074932;28;20280;-62
2022/08/03 09:52:13;;;;;;;3.27;2.40;;;;;;;32.53;34.06;99470.22;5074110;28;20269;-65
2022/08/03 09:54:42;;;;;;;4.03;2.70;;;;;;;33.20;32.75;99473.25;5074960;28;20194;-65
2022/08/03 09:57:20;;;;;;;2.33;2.23;;;;;;;33.84;31.99;99467.81;5073945;28;20328;-66
2022/08/03 09:59:47;;;;;;;2.88;2.67;;;;;;;34.36;31.40;99467.72;5074785;28;20587;-65
2022/08/03 10:02:22;;;;;;;4.03;2.20;;;;;;;34.72;31.01;99460.03;5074836;28;20196;-66
2022/08/03 10:04:51;;;;;;;2.35;2.25;;;;;;;34.92;30.38;99463.69;5080353;28;20179;-65
2022/08/03 10:07:18;;;;;;;3.53;2.90;;;;;;;35.12;30.00;99463.44;5095385;28;20191;-66
2022/08/03 10:09:55;;;;;;;2.83;2.63;;;;;;;35.13;29.76;99469.72;5095417;28;20280;-65
2022/08/03 10:12:22;;;;;;;3.08;2.83;;;;;;;35.14;29.99;99463.84;5095036;28;20186;-65
2022/08/03 10:14:48;;;;;;;2.78;2.58;;;;;;;34.60;30.63;99459.28;5095005;28;20253;-65
2022/08/03 10:17:15;;;;;;;3.30;3.10;;;;;;;33.33;33.00;99454.81;5082347;28;20713;-64
2022/08/03 10:19:42;;;;;;;3.53;3.33;;;;;;;32.85;34.10;99455.63;5074285;28;20223;-64
2022/08/03 10:22:13;;;;;;;3.43;3.13;;;;;;;32.27;34.93;99450.41;5074182;28;20198;-64
2022/08/03 10:24:46;;;;;;;4.47;3.43;;;;;;;32.68;34.17;99450.31;5074583;28;20274;-64
2022/08/03 10:27:15;;;;;;;7.77;3.20;;;;;;;32.87;34.18;99458.81;5074086;28;20188;-64
2022/08/03 10:29:45;;;;;;;3.07;2.97;;;;;;;32.41;34.80;99445.44;5073787;28;20636;-65
2022/08/03 10:32:18;;;;;;;3.30;3.10;;;;;;;32.72;34.85;99448.47;5074179;28;20179;-64
2022/08/03 10:34:46;;;;;;;3.30;3.10;;;;;;;32.74;35.00;99437.91;5073900;28;20199;-65
2022/08/03 10:37:15;;;;;;;4.97;3.17;;;;;;;32.84;35.10;99443.00;5073608;28;20656;-66
2022/08/03 10:39:53;;;;;;;3.23;2.97;;;;;;;32.93;35.24;99440.94;5073646;28;20219;-67
2022/08/03 10:42:24;;;;;;;4.23;2.80;;;;;;;33.05;34.46;99442.88;5073714;28;20546;-66
2022/08/03 10:45:01;;;;;;;9.20;3.73;;;;;;;33.14;34.22;99441.63;5073759;28;20184;-63
2022/08/03 10:47:28;;;;;;;5.80;5.30;;;;;;;32.20;35.47;99436.41;5073894;28;20191;-62
2022/08/03 10:49:55;;;;;;;4.40;4.10;;;;;;;32.10;36.62;99434.06;5071093;28;20211;-63
2022/08/03 10:52:22;;;;;;;4.27;3.93;;;;;;;32.14;37.20;99426.75;5072310;28;20192;-64
2022/08/03 10:57:57;;;;;;;3.07;2.97;;;;;;;31.80;38.86;99424.34;5068672;28;20274;-64
2022/08/03 11:00:24;;;;;;;4.80;3.27;;;;;;;31.84;39.33;99419.78;5049080;28;20232;-65
2022/08/03 11:03:15;;;;;;;3.97;3.57;;;;;;;31.53;39.76;99419.38;5052727;28;20558;-65
2022/08/03 11:05:43;;;;;;;3.20;3.10;;;;;;;31.48;39.18;99422.31;5080626;28;20187;-65
2022/08/03 11:08:34;;;;;;;4.00;3.70;;;;;;;31.88;38.12;99420.72;5093460;28;20188;-64
2022/08/03 11:11:22;;;;;;;3.53;3.33;;;;;;;31.83;38.30;99407.19;5093329;28;20183;-64
2022/08/03 11:14:01;;;;;;;5.80;3.63;;;;;;;31.89;38.36;99399.53;5093624;28;20227;-64
2022/08/03 11:16:28;;;;;;;5.97;3.67;;;;;;;31.89;37.77;99416.03;5093599;28;20286;-64
2022/08/03 11:18:59;;;;;;;4.00;3.53;;;;;;;32.05;38.13;99404.03;5084797;28;20656;-64
2022/08/03 11:21:55;;;;;;;5.20;3.83;;;;;;;32.15;37.51;99400.06;5073130;28;20188;-65
2022/08/03 11:24:59;;;;;;;3.47;3.10;;;;;;;32.57;37.17;99409.78;5072915;28;20188;-65
2022/08/03 11:27:27;;;;;;;7.93;3.83;;;;;;;32.54;36.96;99400.28;5073429;28;20243;-65
2022/08/03 11:29:58;;;;;;;5.63;3.43;;;;;;;32.40;37.36;99397.06;5073167;28;20249;-65
2022/08/03 11:32:58;;;;;;;10.77;4.33;;;;;;;32.36;37.32;99392.59;5073300;28;20192;-65
2022/08/03 11:35:27;;;;;;;3.43;3.10;;;;;;;32.48;36.94;99374.16;5068122;28;20543;-65
2022/08/03 11:38:06;;;;;;;3.90;3.23;;;;;;;32.17;36.89;99356.56;5072477;28;20569;-64
2022/08/03 11:40:34;;;;;;;3.23;3.03;;;;;;;31.92;37.71;99379.59;5071011;28;20215;-65
2022/08/03 11:43:02;;;;;;;3.63;3.43;;;;;;;32.14;36.76;99385.50;5069852;28;20246;-65
2022/08/03 11:45:31;;;;;;;3.47;3.20;;;;;;;32.35;36.17;99379.97;5072587;28;20188;-64
2022/08/03 11:47:59;;;;;;;3.27;2.97;;;;;;;32.25;36.78;99374.88;5072473;28;20198;-64
2022/08/03 11:50:26;;;;;;;2.97;2.87;;;;;;;32.55;35.76;99377.13;5072414;28;20257;-66
2022/08/03 11:52:54;;;;;;;5.07;3.37;;;;;;;32.65;36.04;99378.63;5057483;28;20200;-65